sensor_id;sensor_type;location;lat;lon;timestamp;temperature;humidity
9371;DHT22;4725;48.384;8.984;2023-06-10T00:00:49;14.70;99.90
9371;DHT22;4725;48.384;8.984;2023-06-10T00:03:16;14.60;99.90
9371;DHT22;4725;48.384;8.984;2023-06-10T00:05:44;14.50;99.90
9371;DHT22;4725;48.384;8.984;2023-06-10T00:08:12;14.50;99.90
9371;DHT22;4725;48.384;8.984;2023-06-10T00:10:41;14.10;99.90
9371;DHT22;4725;48.384;8.984;2023-06-10T00:13:08;14.00;99.90
9371;DHT22;4725;48.384;8.984;2023-06-10T00:15:37;14.00;99.90
9371;DHT22;4725;48.384;8.984;2023-06-10T00:18:04;14.00;99.90
9371;DHT22;4725;48.384;8.984;2023-06-10T00:20:31;13.80;99.90
9371;DHT22;4725;48.384;8.984;2023-06-10T00:22:59;13.60;99.90
9371;DHT22;4725;48.384;8.984;2023-06-10T00:25:27;13.70;99.90
9371;DHT22;4725;48.384;8.984;2023-06-10T00:27:54;13.70;99.90
9371;DHT22;4725;48.384;8.984;2023-06-10T00:30:21;13.70;99.90
9371;DHT22;4725;48.384;8.984;2023-06-10T00:32:48;13.80;99.90
9371;DHT22;4725;48.384;8.984;2023-06-10T00:35:15;13.80;99.90
9371;DHT22;4725;48.384;8.984;2023-06-10T00:37:42;13.70;99.90
9371;DHT22;4725;48.384;8.984;2023-06-10T00:40:11;13.80;99.90
9371;DHT22;4725;48.384;8.984;2023-06-10T00:42:38;13.90;99.90
9371;DHT22;4725;48.384;8.984;2023-06-10T00:45:06;13.90;99.90
9371;DHT22;4725;48.384;8.984;2023-06-10T00:47:33;13.90;99.90
9371;DHT22;4725;48.384;8.984;2023-06-10T00:50:01;14.00;99.90
9371;DHT22;4725;48.384;8.984;2023-06-10T00:52:29;14.10;99.90
9371;DHT22;4725;48.384;8.984;2023-06-10T00:54:56;14.20;99.90
9371;DHT22;4725;48.384;8.984;2023-06-10T00:57:26;13.80;99.90
9371;DHT22;4725;48.384;8.984;2023-06-10T00:59:53;13.80;99.90
9371;DHT22;4725;48.384;8.984;2023-06-10T01:02:21;13.70;99.90
9371;DHT22;4725;48.384;8.984;2023-06-10T01:04:48;13.70;99.90
9371;DHT22;4725;48.384;8.984;2023-06-10T01:07:20;13.60;99.90
9371;DHT22;4725;48.384;8.984;2023-06-10T01:09:54;13.50;99.90
9371;DHT22;4725;48.384;8.984;2023-06-10T01:12:31;13.50;99.90
9371;DHT22;4725;48.384;8.984;2023-06-10T01:14:59;13.30;99.90
9371;DHT22;4725;48.384;8.984;2023-06-10T01:17:27;13.30;99.90
9371;DHT22;4725;48.384;8.984;2023-06-10T01:19:56;13.40;99.90
9371;DHT22;4725;48.384;8.984;2023-06-10T01:22:26;13.40;99.90
9371;DHT22;4725;48.384;8.984;2023-06-10T01:24:54;13.40;99.90
9371;DHT22;4725;48.384;8.984;2023-06-10T01:27:26;13.50;99.90
9371;DHT22;4725;48.384;8.984;2023-06-10T01:29:59;13.70;99.90
9371;DHT22;4725;48.384;8.984;2023-06-10T01:32:33;13.70;99.90
9371;DHT22;4725;48.384;8.984;2023-06-10T01:35:02;13.70;99.90
9371;DHT22;4725;48.384;8.984;2023-06-10T01:37:31;13.80;99.90
9371;DHT22;4725;48.384;8.984;2023-06-10T01:40:02;14.00;99.90
9371;DHT22;4725;48.384;8.984;2023-06-10T01:42:31;14.00;99.90
9371;DHT22;4725;48.384;8.984;2023-06-10T01:44:59;14.00;99.90
9371;DHT22;4725;48.384;8.984;2023-06-10T01:47:26;13.90;99.90
9371;DHT22;4725;48.384;8.984;2023-06-10T01:49:53;13.90;99.90
9371;DHT22;4725;48.384;8.984;2023-06-10T01:52:20;13.90;99.90
9371;DHT22;4725;48.384;8.984;2023-06-10T01:54:48;13.90;99.90
9371;DHT22;4725;48.384;8.984;2023-06-10T01:57:15;13.80;99.90
9371;DHT22;4725;48.384;8.984;2023-06-10T01:59:42;13.60;99.90
9371;DHT22;4725;48.384;8.984;2023-06-10T02:02:10;13.60;99.90
9371;DHT22;4725;48.384;8.984;2023-06-10T02:04:36;13.40;99.90
9371;DHT22;4725;48.384;8.984;2023-06-10T02:07:04;13.40;99.90
9371;DHT22;4725;48.384;8.984;2023-06-10T02:09:31;13.20;99.90
9371;DHT22;4725;48.384;8.984;2023-06-10T02:12:02;13.20;99.90
9371;DHT22;4725;48.384;8.984;2023-06-10T02:14:29;13.00;99.90
9371;DHT22;4725;48.384;8.984;2023-06-10T02:16:55;12.90;99.90
9371;DHT22;4725;48.384;8.984;2023-06-10T02:19:23;12.80;99.90
9371;DHT22;4725;48.384;8.984;2023-06-10T02:21:50;12.80;99.90
9371;DHT22;4725;48.384;8.984;2023-06-10T02:24:17;12.70;99.90
9371;DHT22;4725;48.384;8.984;2023-06-10T02:26:44;12.60;99.90
9371;DHT22;4725;48.384;8.984;2023-06-10T02:29:14;12.50;99.90
9371;DHT22;4725;48.384;8.984;2023-06-10T02:31:41;12.50;99.90
9371;DHT22;4725;48.384;8.984;2023-06-10T02:34:08;12.60;99.90
9371;DHT22;4725;48.384;8.984;2023-06-10T02:36:35;12.60;99.90
9371;DHT22;4725;48.384;8.984;2023-06-10T02:39:02;12.50;99.90
9371;DHT22;4725;48.384;8.984;2023-06-10T02:41:29;12.30;99.90
9371;DHT22;4725;48.384;8.984;2023-06-10T02:43:56;12.10;99.90
9371;DHT22;4725;48.384;8.984;2023-06-10T02:46:24;12.00;99.90
9371;DHT22;4725;48.384;8.984;2023-06-10T02:48:51;12.10;99.90
9371;DHT22;4725;48.384;8.984;2023-06-10T02:51:18;12.10;99.90
9371;DHT22;4725;48.384;8.984;2023-06-10T02:53:46;12.10;99.90
9371;DHT22;4725;48.384;8.984;2023-06-10T02:56:15;11.80;99.90
9371;DHT22;4725;48.384;8.984;2023-06-10T02:58:42;11.80;99.90
9371;DHT22;4725;48.384;8.984;2023-06-10T03:01:09;11.40;99.90
9371;DHT22;4725;48.384;8.984;2023-06-10T03:03:37;11.30;99.90
9371;DHT22;4725;48.384;8.984;2023-06-10T03:06:06;11.20;99.90
9371;DHT22;4725;48.384;8.984;2023-06-10T03:08:34;11.20;99.90
9371;DHT22;4725;48.384;8.984;2023-06-10T03:11:00;11.10;99.90
9371;DHT22;4725;48.384;8.984;2023-06-10T03:13:27;11.10;99.90
9371;DHT22;4725;48.384;8.984;2023-06-10T03:15:54;11.20;99.90
9371;DHT22;4725;48.384;8.984;2023-06-10T03:18:25;11.10;99.90
9371;DHT22;4725;48.384;8.984;2023-06-10T03:20:53;11.00;99.90
9371;DHT22;4725;48.384;8.984;2023-06-10T03:23:20;11.10;99.90
9371;DHT22;4725;48.384;8.984;2023-06-10T03:25:47;11.10;99.90
9371;DHT22;4725;48.384;8.984;2023-06-10T03:28:14;11.00;99.90
9371;DHT22;4725;48.384;8.984;2023-06-10T03:30:41;11.10;99.90
9371;DHT22;4725;48.384;8.984;2023-06-10T03:33:08;11.10;99.90
9371;DHT22;4725;48.384;8.984;2023-06-10T03:35:34;11.00;99.90
9371;DHT22;4725;48.384;8.984;2023-06-10T03:38:03;11.00;99.90
9371;DHT22;4725;48.384;8.984;2023-06-10T03:40:30;11.10;99.90
9371;DHT22;4725;48.384;8.984;2023-06-10T03:42:57;11.00;99.90
9371;DHT22;4725;48.384;8.984;2023-06-10T03:45:24;11.00;99.90
9371;DHT22;4725;48.384;8.984;2023-06-10T03:47:54;10.90;99.90
9371;DHT22;4725;48.384;8.984;2023-06-10T03:50:21;10.90;99.90
9371;DHT22;4725;48.384;8.984;2023-06-10T03:52:49;11.00;99.90
9371;DHT22;4725;48.384;8.984;2023-06-10T03:55:17;11.10;99.90
9371;DHT22;4725;48.384;8.984;2023-06-10T03:57:47;11.40;99.90
9371;DHT22;4725;48.384;8.984;2023-06-10T04:00:15;11.50;99.90
9371;DHT22;4725;48.384;8.984;2023-06-10T04:02:43;11.50;99.90
9371;DHT22;4725;48.384;8.984;2023-06-10T04:05:15;11.60;99.90
9371;DHT22;4725;48.384;8.984;2023-06-10T04:07:42;11.80;99.90
9371;DHT22;4725;48.384;8.984;2023-06-10T04:10:10;12.00;99.90
9371;DHT22;4725;48.384;8.984;2023-06-10T04:12:38;12.00;99.90
9371;DHT22;4725;48.384;8.984;2023-06-10T04:15:06;12.10;99.90
9371;DHT22;4725;48.384;8.984;2023-06-10T04:17:33;12.10;99.90
9371;DHT22;4725;48.384;8.984;2023-06-10T04:20:00;12.30;99.90
9371;DHT22;4725;48.384;8.984;2023-06-10T04:22:28;12.40;99.90
9371;DHT22;4725;48.384;8.984;2023-06-10T04:24:55;12.50;99.90
9371;DHT22;4725;48.384;8.984;2023-06-10T04:27:22;12.50;99.90
9371;DHT22;4725;48.384;8.984;2023-06-10T04:29:50;12.60;99.90
9371;DHT22;4725;48.384;8.984;2023-06-10T04:32:18;12.60;99.90
9371;DHT22;4725;48.384;8.984;2023-06-10T04:34:44;12.70;99.90
9371;DHT22;4725;48.384;8.984;2023-06-10T04:37:11;12.90;99.90
9371;DHT22;4725;48.384;8.984;2023-06-10T04:39:38;13.00;99.90
9371;DHT22;4725;48.384;8.984;2023-06-10T04:42:07;13.10;99.90
9371;DHT22;4725;48.384;8.984;2023-06-10T04:44:33;13.10;99.90
9371;DHT22;4725;48.384;8.984;2023-06-10T04:47:02;13.20;99.90
9371;DHT22;4725;48.384;8.984;2023-06-10T04:49:29;13.30;99.90
9371;DHT22;4725;48.384;8.984;2023-06-10T04:51:57;13.40;99.90
9371;DHT22;4725;48.384;8.984;2023-06-10T04:54:25;13.50;99.90
9371;DHT22;4725;48.384;8.984;2023-06-10T04:56:52;13.60;99.90
9371;DHT22;4725;48.384;8.984;2023-06-10T04:59:19;13.80;99.90
9371;DHT22;4725;48.384;8.984;2023-06-10T05:01:46;13.90;99.90
9371;DHT22;4725;48.384;8.984;2023-06-10T05:04:15;14.00;99.90
9371;DHT22;4725;48.384;8.984;2023-06-10T05:06:41;14.10;99.90
9371;DHT22;4725;48.384;8.984;2023-06-10T05:09:09;14.20;99.90
9371;DHT22;4725;48.384;8.984;2023-06-10T05:11:36;14.40;99.90
9371;DHT22;4725;48.384;8.984;2023-06-10T05:14:03;14.50;99.90
9371;DHT22;4725;48.384;8.984;2023-06-10T05:16:29;14.60;99.90
9371;DHT22;4725;48.384;8.984;2023-06-10T05:18:56;14.80;99.90
9371;DHT22;4725;48.384;8.984;2023-06-10T05:21:24;14.90;99.90
9371;DHT22;4725;48.384;8.984;2023-06-10T05:23:51;15.00;99.90
9371;DHT22;4725;48.384;8.984;2023-06-10T05:26:19;15.00;99.90
9371;DHT22;4725;48.384;8.984;2023-06-10T05:28:46;15.40;99.90
9371;DHT22;4725;48.384;8.984;2023-06-10T05:31:13;15.30;99.90
9371;DHT22;4725;48.384;8.984;2023-06-10T05:33:40;15.50;99.90
9371;DHT22;4725;48.384;8.984;2023-06-10T05:36:06;15.50;99.90
9371;DHT22;4725;48.384;8.984;2023-06-10T05:38:35;15.50;99.90
9371;DHT22;4725;48.384;8.984;2023-06-10T05:41:02;15.70;99.90
9371;DHT22;4725;48.384;8.984;2023-06-10T05:43:29;15.80;99.90
9371;DHT22;4725;48.384;8.984;2023-06-10T05:45:56;15.80;99.90
9371;DHT22;4725;48.384;8.984;2023-06-10T05:48:23;15.90;99.90
9371;DHT22;4725;48.384;8.984;2023-06-10T05:50:50;16.10;99.90
9371;DHT22;4725;48.384;8.984;2023-06-10T05:53:16;16.20;99.90
9371;DHT22;4725;48.384;8.984;2023-06-10T05:55:45;16.20;99.90
9371;DHT22;4725;48.384;8.984;2023-06-10T05:58:13;16.40;99.90
9371;DHT22;4725;48.384;8.984;2023-06-10T06:00:40;16.60;99.90
9371;DHT22;4725;48.384;8.984;2023-06-10T06:03:07;16.60;99.90
9371;DHT22;4725;48.384;8.984;2023-06-10T06:05:35;16.70;99.90
9371;DHT22;4725;48.384;8.984;2023-06-10T06:08:03;16.80;99.90
9371;DHT22;4725;48.384;8.984;2023-06-10T06:10:30;17.20;99.90
9371;DHT22;4725;48.384;8.984;2023-06-10T06:12:59;17.20;99.90
9371;DHT22;4725;48.384;8.984;2023-06-10T06:15:26;17.20;99.90
9371;DHT22;4725;48.384;8.984;2023-06-10T06:17:53;17.30;99.90
9371;DHT22;4725;48.384;8.984;2023-06-10T06:20:21;17.60;99.90
9371;DHT22;4725;48.384;8.984;2023-06-10T06:22:49;17.60;99.90
9371;DHT22;4725;48.384;8.984;2023-06-10T06:25:16;17.60;99.90
9371;DHT22;4725;48.384;8.984;2023-06-10T06:27:43;17.70;99.90
9371;DHT22;4725;48.384;8.984;2023-06-10T06:30:11;17.90;99.90
9371;DHT22;4725;48.384;8.984;2023-06-10T06:32:38;18.00;99.90
9371;DHT22;4725;48.384;8.984;2023-06-10T06:35:05;18.20;99.90
9371;DHT22;4725;48.384;8.984;2023-06-10T06:37:33;18.30;99.90
9371;DHT22;4725;48.384;8.984;2023-06-10T06:40:00;18.60;99.90
9371;DHT22;4725;48.384;8.984;2023-06-10T06:42:27;18.60;99.90
9371;DHT22;4725;48.384;8.984;2023-06-10T06:44:54;18.60;99.90
9371;DHT22;4725;48.384;8.984;2023-06-10T06:47:22;18.70;99.90
9371;DHT22;4725;48.384;8.984;2023-06-10T06:49:50;18.70;99.90
9371;DHT22;4725;48.384;8.984;2023-06-10T06:52:17;18.90;99.90
9371;DHT22;4725;48.384;8.984;2023-06-10T06:54:44;19.00;99.90
9371;DHT22;4725;48.384;8.984;2023-06-10T06:57:11;19.00;99.90
9371;DHT22;4725;48.384;8.984;2023-06-10T06:59:38;19.10;99.90
9371;DHT22;4725;48.384;8.984;2023-06-10T07:02:05;19.20;99.90
9371;DHT22;4725;48.384;8.984;2023-06-10T07:04:34;19.30;99.90
9371;DHT22;4725;48.384;8.984;2023-06-10T07:07:01;19.40;99.90
9371;DHT22;4725;48.384;8.984;2023-06-10T07:09:28;19.20;99.90
9371;DHT22;4725;48.384;8.984;2023-06-10T07:11:54;19.50;99.90
9371;DHT22;4725;48.384;8.984;2023-06-10T07:14:21;19.60;99.90
9371;DHT22;4725;48.384;8.984;2023-06-10T07:16:48;19.80;99.90
9371;DHT22;4725;48.384;8.984;2023-06-10T07:19:15;19.80;99.90
9371;DHT22;4725;48.384;8.984;2023-06-10T07:21:43;20.10;99.90
9371;DHT22;4725;48.384;8.984;2023-06-10T07:24:10;20.20;99.90
9371;DHT22;4725;48.384;8.984;2023-06-10T07:26:37;20.40;99.90
9371;DHT22;4725;48.384;8.984;2023-06-10T07:29:04;20.60;99.90
9371;DHT22;4725;48.384;8.984;2023-06-10T07:31:31;20.50;99.90
9371;DHT22;4725;48.384;8.984;2023-06-10T07:33:58;20.60;99.90
9371;DHT22;4725;48.384;8.984;2023-06-10T07:36:24;20.60;99.90
9371;DHT22;4725;48.384;8.984;2023-06-10T07:38:54;20.70;99.90
9371;DHT22;4725;48.384;8.984;2023-06-10T07:41:22;20.90;99.90
9371;DHT22;4725;48.384;8.984;2023-06-10T07:43:50;21.00;99.90
9371;DHT22;4725;48.384;8.984;2023-06-10T07:46:20;21.10;99.90
9371;DHT22;4725;48.384;8.984;2023-06-10T07:48:47;21.10;99.90
9371;DHT22;4725;48.384;8.984;2023-06-10T07:51:14;21.40;99.90
9371;DHT22;4725;48.384;8.984;2023-06-10T07:53:41;21.50;99.90
9371;DHT22;4725;48.384;8.984;2023-06-10T07:56:10;21.60;99.90
9371;DHT22;4725;48.384;8.984;2023-06-10T07:58:36;21.70;99.90
9371;DHT22;4725;48.384;8.984;2023-06-10T08:01:03;21.90;99.90
9371;DHT22;4725;48.384;8.984;2023-06-10T08:03:30;21.90;99.90
9371;DHT22;4725;48.384;8.984;2023-06-10T08:05:57;21.90;99.90
9371;DHT22;4725;48.384;8.984;2023-06-10T08:08:24;22.20;99.90
9371;DHT22;4725;48.384;8.984;2023-06-10T08:10:51;22.20;99.90
9371;DHT22;4725;48.384;8.984;2023-06-10T08:13:19;22.20;99.90
9371;DHT22;4725;48.384;8.984;2023-06-10T08:15:47;22.40;99.90
9371;DHT22;4725;48.384;8.984;2023-06-10T08:18:16;22.60;99.90
9371;DHT22;4725;48.384;8.984;2023-06-10T08:20:42;22.80;99.90
9371;DHT22;4725;48.384;8.984;2023-06-10T08:23:09;22.80;99.90
9371;DHT22;4725;48.384;8.984;2023-06-10T08:25:36;22.80;99.90
9371;DHT22;4725;48.384;8.984;2023-06-10T08:28:03;22.80;99.90
9371;DHT22;4725;48.384;8.984;2023-06-10T08:30:31;22.90;99.90
9371;DHT22;4725;48.384;8.984;2023-06-10T08:32:58;22.80;99.90
9371;DHT22;4725;48.384;8.984;2023-06-10T08:35:25;22.80;99.90
9371;DHT22;4725;48.384;8.984;2023-06-10T08:37:52;25.60;99.90
9371;DHT22;4725;48.384;8.984;2023-06-10T08:40:19;22.70;99.90
9371;DHT22;4725;48.384;8.984;2023-06-10T08:42:50;22.70;99.90
9371;DHT22;4725;48.384;8.984;2023-06-10T08:45:22;22.90;99.90
9371;DHT22;4725;48.384;8.984;2023-06-10T08:47:52;23.00;99.90
9371;DHT22;4725;48.384;8.984;2023-06-10T08:50:20;23.40;99.90
9371;DHT22;4725;48.384;8.984;2023-06-10T08:52:50;23.40;99.90
9371;DHT22;4725;48.384;8.984;2023-06-10T08:55:21;23.60;99.90
9371;DHT22;4725;48.384;8.984;2023-06-10T08:57:52;23.90;99.90
9371;DHT22;4725;48.384;8.984;2023-06-10T09:00:19;24.00;99.90
9371;DHT22;4725;48.384;8.984;2023-06-10T09:02:47;24.10;99.90
9371;DHT22;4725;48.384;8.984;2023-06-10T09:05:16;24.10;99.90
9371;DHT22;4725;48.384;8.984;2023-06-10T09:07:43;24.40;99.90
9371;DHT22;4725;48.384;8.984;2023-06-10T09:10:11;24.90;99.90
9371;DHT22;4725;48.384;8.984;2023-06-10T09:12:38;24.90;99.90
9371;DHT22;4725;48.384;8.984;2023-06-10T09:15:06;24.80;99.90
9371;DHT22;4725;48.384;8.984;2023-06-10T09:17:33;24.90;99.90
9371;DHT22;4725;48.384;8.984;2023-06-10T09:20:01;25.10;99.90
9371;DHT22;4725;48.384;8.984;2023-06-10T09:22:30;25.10;99.90
9371;DHT22;4725;48.384;8.984;2023-06-10T09:25:03;25.20;99.90
9371;DHT22;4725;48.384;8.984;2023-06-10T09:27:31;25.50;99.90
9371;DHT22;4725;48.384;8.984;2023-06-10T09:29:58;25.70;99.90
9371;DHT22;4725;48.384;8.984;2023-06-10T09:32:26;25.70;99.90
9371;DHT22;4725;48.384;8.984;2023-06-10T09:34:53;25.60;99.90
9371;DHT22;4725;48.384;8.984;2023-06-10T09:37:21;25.50;99.90
9371;DHT22;4725;48.384;8.984;2023-06-10T09:40:02;26.00;99.70
9371;DHT22;4725;48.384;8.984;2023-06-10T09:42:33;26.10;99.90
9371;DHT22;4725;48.384;8.984;2023-06-10T09:45:01;26.10;99.90
9371;DHT22;4725;48.384;8.984;2023-06-10T09:47:28;25.80;99.90
9371;DHT22;4725;48.384;8.984;2023-06-10T09:52:22;26.00;99.90
9371;DHT22;4725;48.384;8.984;2023-06-10T09:54:50;26.00;99.50
9371;DHT22;4725;48.384;8.984;2023-06-10T09:57:19;26.30;99.90
9371;DHT22;4725;48.384;8.984;2023-06-10T09:59:46;26.20;99.80
9371;DHT22;4725;48.384;8.984;2023-06-10T10:02:17;26.50;99.50
9371;DHT22;4725;48.384;8.984;2023-06-10T10:04:44;26.70;99.10
9371;DHT22;4725;48.384;8.984;2023-06-10T10:07:11;26.70;99.40
9371;DHT22;4725;48.384;8.984;2023-06-10T10:09:39;26.90;99.20
9371;DHT22;4725;48.384;8.984;2023-06-10T10:12:09;26.90;99.50
9371;DHT22;4725;48.384;8.984;2023-06-10T10:14:39;26.90;98.90
9371;DHT22;4725;48.384;8.984;2023-06-10T10:17:10;26.30;99.90
9371;DHT22;4725;48.384;8.984;2023-06-10T10:19:42;25.90;99.90
9371;DHT22;4725;48.384;8.984;2023-06-10T10:22:18;25.80;99.90
9371;DHT22;4725;48.384;8.984;2023-06-10T10:24:49;26.40;99.30
9371;DHT22;4725;48.384;8.984;2023-06-10T10:27:18;26.40;99.00
9371;DHT22;4725;48.384;8.984;2023-06-10T10:29:52;26.50;99.40
9371;DHT22;4725;48.384;8.984;2023-06-10T10:32:22;27.20;96.80
9371;DHT22;4725;48.384;8.984;2023-06-10T10:34:59;26.70;96.60
9371;DHT22;4725;48.384;8.984;2023-06-10T10:37:28;26.30;97.50
9371;DHT22;4725;48.384;8.984;2023-06-10T10:42:23;25.90;97.70
9371;DHT22;4725;48.384;8.984;2023-06-10T10:44:51;26.70;97.80
9371;DHT22;4725;48.384;8.984;2023-06-10T10:47:21;27.40;96.30
9371;DHT22;4725;48.384;8.984;2023-06-10T10:49:50;27.60;95.40
9371;DHT22;4725;48.384;8.984;2023-06-10T10:52:18;27.90;93.30
9371;DHT22;4725;48.384;8.984;2023-06-10T10:54:46;29.30;92.00
9371;DHT22;4725;48.384;8.984;2023-06-10T10:57:15;29.80;92.00
9371;DHT22;4725;48.384;8.984;2023-06-10T10:59:56;29.80;91.10
9371;DHT22;4725;48.384;8.984;2023-06-10T11:02:35;29.40;90.70
9371;DHT22;4725;48.384;8.984;2023-06-10T11:05:05;28.80;91.20
9371;DHT22;4725;48.384;8.984;2023-06-10T11:07:33;28.40;91.90
9371;DHT22;4725;48.384;8.984;2023-06-10T11:10:01;29.60;90.30
9371;DHT22;4725;48.384;8.984;2023-06-10T11:12:49;29.60;90.50
9371;DHT22;4725;48.384;8.984;2023-06-10T11:15:20;29.60;90.50
9371;DHT22;4725;48.384;8.984;2023-06-10T11:18:06;29.00;90.50
9371;DHT22;4725;48.384;8.984;2023-06-10T11:20:52;28.80;90.90
9371;DHT22;4725;48.384;8.984;2023-06-10T11:23:39;29.40;90.80
9371;DHT22;4725;48.384;8.984;2023-06-10T11:26:22;30.30;90.20
9371;DHT22;4725;48.384;8.984;2023-06-10T11:29:06;30.90;89.40
9371;DHT22;4725;48.384;8.984;2023-06-10T11:31:43;30.50;87.70
9371;DHT22;4725;48.384;8.984;2023-06-10T11:34:10;30.90;86.50
9371;DHT22;4725;48.384;8.984;2023-06-10T11:36:39;30.80;87.30
9371;DHT22;4725;48.384;8.984;2023-06-10T11:39:11;30.30;88.90
9371;DHT22;4725;48.384;8.984;2023-06-10T11:41:39;29.40;90.10
9371;DHT22;4725;48.384;8.984;2023-06-10T11:44:10;28.90;90.80
9371;DHT22;4725;48.384;8.984;2023-06-10T11:46:39;28.60;90.90
9371;DHT22;4725;48.384;8.984;2023-06-10T11:49:08;28.70;91.40
9371;DHT22;4725;48.384;8.984;2023-06-10T11:51:35;28.90;91.80
9371;DHT22;4725;48.384;8.984;2023-06-10T11:54:03;29.70;91.10
9371;DHT22;4725;48.384;8.984;2023-06-10T11:56:31;29.20;90.70
9371;DHT22;4725;48.384;8.984;2023-06-10T11:58:59;29.70;90.50
9371;DHT22;4725;48.384;8.984;2023-06-10T12:01:30;30.10;88.50
9371;DHT22;4725;48.384;8.984;2023-06-10T12:04:00;30.20;90.40
9371;DHT22;4725;48.384;8.984;2023-06-10T12:06:37;29.90;90.10
9371;DHT22;4725;48.384;8.984;2023-06-10T12:09:05;29.70;90.50
9371;DHT22;4725;48.384;8.984;2023-06-10T12:11:32;30.60;90.10
9371;DHT22;4725;48.384;8.984;2023-06-10T12:13:59;30.90;88.40
9371;DHT22;4725;48.384;8.984;2023-06-10T12:16:26;31.80;87.70
9371;DHT22;4725;48.384;8.984;2023-06-10T12:19:02;31.70;87.60
9371;DHT22;4725;48.384;8.984;2023-06-10T12:21:30;32.20;84.40
9371;DHT22;4725;48.384;8.984;2023-06-10T12:24:02;32.30;83.80
9371;DHT22;4725;48.384;8.984;2023-06-10T12:26:36;32.20;83.20
9371;DHT22;4725;48.384;8.984;2023-06-10T12:29:16;32.10;84.00
9371;DHT22;4725;48.384;8.984;2023-06-10T12:31:55;33.30;82.60
9371;DHT22;4725;48.384;8.984;2023-06-10T12:34:30;33.40;84.30
9371;DHT22;4725;48.384;8.984;2023-06-10T12:36:57;33.60;82.70
9371;DHT22;4725;48.384;8.984;2023-06-10T12:39:24;33.90;81.50
9371;DHT22;4725;48.384;8.984;2023-06-10T12:44:27;31.70;82.60
9371;DHT22;4725;48.384;8.984;2023-06-10T12:46:55;30.60;84.00
9371;DHT22;4725;48.384;8.984;2023-06-10T12:49:22;30.70;87.00
9371;DHT22;4725;48.384;8.984;2023-06-10T12:51:50;30.80;84.60
9371;DHT22;4725;48.384;8.984;2023-06-10T12:54:17;30.80;84.50
9371;DHT22;4725;48.384;8.984;2023-06-10T12:56:44;30.20;85.40
9371;DHT22;4725;48.384;8.984;2023-06-10T12:59:11;29.80;87.10
9371;DHT22;4725;48.384;8.984;2023-06-10T13:01:38;29.30;90.10
9371;DHT22;4725;48.384;8.984;2023-06-10T13:04:05;29.20;90.40
9371;DHT22;4725;48.384;8.984;2023-06-10T13:06:33;28.80;90.20
9371;DHT22;4725;48.384;8.984;2023-06-10T13:09:05;28.50;90.00
9371;DHT22;4725;48.384;8.984;2023-06-10T13:11:32;28.50;89.80
9371;DHT22;4725;48.384;8.984;2023-06-10T13:13:59;28.50;90.20
9371;DHT22;4725;48.384;8.984;2023-06-10T13:16:26;28.60;90.10
9371;DHT22;4725;48.384;8.984;2023-06-10T13:18:53;30.30;88.90
9371;DHT22;4725;48.384;8.984;2023-06-10T13:21:20;32.40;80.10
9371;DHT22;4725;48.384;8.984;2023-06-10T13:23:47;32.70;80.70
9371;DHT22;4725;48.384;8.984;2023-06-10T13:26:15;32.70;82.90
9371;DHT22;4725;48.384;8.984;2023-06-10T13:28:42;33.60;78.80
9371;DHT22;4725;48.384;8.984;2023-06-10T13:33:37;32.90;79.00
9371;DHT22;4725;48.384;8.984;2023-06-10T13:36:04;32.80;79.70
9371;DHT22;4725;48.384;8.984;2023-06-10T13:40:58;33.70;76.90
9371;DHT22;4725;48.384;8.984;2023-06-10T13:43:26;33.60;77.10
9371;DHT22;4725;48.384;8.984;2023-06-10T13:45:54;33.30;80.00
9371;DHT22;4725;48.384;8.984;2023-06-10T13:48:21;33.10;82.10
9371;DHT22;4725;48.384;8.984;2023-06-10T13:50:48;32.00;79.80
9371;DHT22;4725;48.384;8.984;2023-06-10T13:53:15;31.90;81.40
9371;DHT22;4725;48.384;8.984;2023-06-10T13:55:42;31.30;81.00
9371;DHT22;4725;48.384;8.984;2023-06-10T13:58:08;30.70;83.00
9371;DHT22;4725;48.384;8.984;2023-06-10T14:00:37;29.70;84.00
9371;DHT22;4725;48.384;8.984;2023-06-10T14:03:03;29.70;85.10
9371;DHT22;4725;48.384;8.984;2023-06-10T14:07:58;29.70;86.30
9371;DHT22;4725;48.384;8.984;2023-06-10T14:10:25;31.40;83.60
9371;DHT22;4725;48.384;8.984;2023-06-10T14:12:52;31.80;83.50
9371;DHT22;4725;48.384;8.984;2023-06-10T14:15:19;32.90;81.30
9371;DHT22;4725;48.384;8.984;2023-06-10T14:17:47;33.30;79.50
9371;DHT22;4725;48.384;8.984;2023-06-10T14:20:14;34.10;76.70
9371;DHT22;4725;48.384;8.984;2023-06-10T14:22:41;34.30;77.00
9371;DHT22;4725;48.384;8.984;2023-06-10T14:27:36;35.50;75.10
9371;DHT22;4725;48.384;8.984;2023-06-10T14:30:04;35.60;71.90
9371;DHT22;4725;48.384;8.984;2023-06-10T14:32:31;36.50;73.40
9371;DHT22;4725;48.384;8.984;2023-06-10T14:34:59;36.50;72.40
9371;DHT22;4725;48.384;8.984;2023-06-10T14:37:26;36.20;74.70
9371;DHT22;4725;48.384;8.984;2023-06-10T14:39:53;36.50;72.70
9371;DHT22;4725;48.384;8.984;2023-06-10T14:42:20;36.90;70.20
9371;DHT22;4725;48.384;8.984;2023-06-10T14:44:46;36.60;70.50
9371;DHT22;4725;48.384;8.984;2023-06-10T14:47:13;34.70;72.60
9371;DHT22;4725;48.384;8.984;2023-06-10T14:49:40;34.70;73.70
9371;DHT22;4725;48.384;8.984;2023-06-10T14:52:10;35.20;72.40
9371;DHT22;4725;48.384;8.984;2023-06-10T14:54:37;35.50;72.10
9371;DHT22;4725;48.384;8.984;2023-06-10T14:57:05;35.00;72.90
9371;DHT22;4725;48.384;8.984;2023-06-10T14:59:32;35.30;72.90
9371;DHT22;4725;48.384;8.984;2023-06-10T15:01:59;34.50;73.20
9371;DHT22;4725;48.384;8.984;2023-06-10T15:04:26;34.10;75.70
9371;DHT22;4725;48.384;8.984;2023-06-10T15:09:22;34.80;73.70
9371;DHT22;4725;48.384;8.984;2023-06-10T15:11:49;35.80;71.20
9371;DHT22;4725;48.384;8.984;2023-06-10T15:14:16;35.80;71.30
9371;DHT22;4725;48.384;8.984;2023-06-10T15:16:43;35.60;70.70
9371;DHT22;4725;48.384;8.984;2023-06-10T15:19:09;36.00;70.70
9371;DHT22;4725;48.384;8.984;2023-06-10T15:21:36;36.50;67.00
9371;DHT22;4725;48.384;8.984;2023-06-10T15:24:04;36.60;68.30
9371;DHT22;4725;48.384;8.984;2023-06-10T15:26:32;37.70;66.20
9371;DHT22;4725;48.384;8.984;2023-06-10T15:28:59;37.40;67.20
9371;DHT22;4725;48.384;8.984;2023-06-10T15:31:29;37.40;66.50
9371;DHT22;4725;48.384;8.984;2023-06-10T15:33:57;37.60;66.80
9371;DHT22;4725;48.384;8.984;2023-06-10T15:36:24;37.70;67.30
9371;DHT22;4725;48.384;8.984;2023-06-10T15:38:51;38.00;66.20
9371;DHT22;4725;48.384;8.984;2023-06-10T15:41:18;36.50;67.40
9371;DHT22;4725;48.384;8.984;2023-06-10T15:43:46;36.50;68.90
9371;DHT22;4725;48.384;8.984;2023-06-10T15:46:13;36.80;68.80
9371;DHT22;4725;48.384;8.984;2023-06-10T15:48:40;36.90;68.20
9371;DHT22;4725;48.384;8.984;2023-06-10T15:51:07;37.30;67.00
9371;DHT22;4725;48.384;8.984;2023-06-10T15:53:34;37.40;67.80
9371;DHT22;4725;48.384;8.984;2023-06-10T15:56:01;37.10;67.20
9371;DHT22;4725;48.384;8.984;2023-06-10T15:58:28;37.60;67.60
9371;DHT22;4725;48.384;8.984;2023-06-10T16:00:57;37.10;67.10
9371;DHT22;4725;48.384;8.984;2023-06-10T16:03:23;37.00;67.70
9371;DHT22;4725;48.384;8.984;2023-06-10T16:05:50;36.60;70.20
9371;DHT22;4725;48.384;8.984;2023-06-10T16:08:17;36.90;68.40
9371;DHT22;4725;48.384;8.984;2023-06-10T16:10:44;36.50;68.70
9371;DHT22;4725;48.384;8.984;2023-06-10T16:13:11;36.90;68.80
9371;DHT22;4725;48.384;8.984;2023-06-10T16:15:38;37.00;68.50
9371;DHT22;4725;48.384;8.984;2023-06-10T16:18:06;37.00;68.00
9371;DHT22;4725;48.384;8.984;2023-06-10T16:20:33;36.90;67.20
9371;DHT22;4725;48.384;8.984;2023-06-10T16:23:01;37.00;67.90
9371;DHT22;4725;48.384;8.984;2023-06-10T16:25:28;36.80;67.60
9371;DHT22;4725;48.384;8.984;2023-06-10T16:27:56;36.80;68.60